sensor_id;sensor_type;location;lat;lon;timestamp;pressure;altitude;pressure_sealevel;temperature;humidity
33845;BME280;20145;43.118;25.694;2023-03-03T00:02:02;99814.56;;;7.28;88.44
33845;BME280;20145;43.118;25.694;2023-03-03T00:04:28;99810.31;;;7.30;88.53
33845;BME280;20145;43.118;25.694;2023-03-03T00:06:53;99805.94;;;7.15;88.73
33845;BME280;20145;43.118;25.694;2023-03-03T00:09:19;99806.66;;;7.00;89.15
33845;BME280;20145;43.118;25.694;2023-03-03T00:11:46;99802.34;;;6.96;89.62
33845;BME280;20145;43.118;25.694;2023-03-03T00:14:30;99792.03;;;6.91;89.96
33845;BME280;20145;43.118;25.694;2023-03-03T00:17:01;99789.44;;;6.85;91.33
33845;BME280;20145;43.118;25.694;2023-03-03T00:19:38;99793.69;;;6.83;91.06
33845;BME280;20145;43.118;25.694;2023-03-03T00:22:14;99786.81;;;6.81;91.50
33845;BME280;20145;43.118;25.694;2023-03-03T00:24:43;99782.53;;;6.81;92.23
33845;BME280;20145;43.118;25.694;2023-03-03T00:27:29;99778.28;;;6.83;91.98
33845;BME280;20145;43.118;25.694;2023-03-03T00:29:57;99777.47;;;6.87;92.22
33845;BME280;20145;43.118;25.694;2023-03-03T00:34:52;99771.59;;;7.01;92.03
33845;BME280;20145;43.118;25.694;2023-03-03T00:39:47;99761.31;;;7.01;90.48
33845;BME280;20145;43.118;25.694;2023-03-03T00:42:14;99765.53;;;6.92;90.64
33845;BME280;20145;43.118;25.694;2023-03-03T00:44:46;99761.16;;;6.81;90.74
33845;BME280;20145;43.118;25.694;2023-03-03T00:47:34;99758.50;;;6.70;91.34
33845;BME280;20145;43.118;25.694;2023-03-03T00:52:34;99748.22;;;6.65;91.95
33845;BME280;20145;43.118;25.694;2023-03-03T00:54:59;99756.75;;;6.67;92.04
33845;BME280;20145;43.118;25.694;2023-03-03T00:57:25;99755.91;;;6.65;92.51
33845;BME280;20145;43.118;25.694;2023-03-03T00:59:50;99754.22;;;6.69;92.73
33845;BME280;20145;43.118;25.694;2023-03-03T01:02:16;99755.13;;;6.71;92.20
33845;BME280;20145;43.118;25.694;2023-03-03T01:04:44;99754.25;;;6.72;91.63
33845;BME280;20145;43.118;25.694;2023-03-03T01:07:13;99743.97;;;6.69;92.58
33845;BME280;20145;43.118;25.694;2023-03-03T01:09:39;99743.06;;;6.62;92.30
33845;BME280;20145;43.118;25.694;2023-03-03T01:12:05;99740.44;;;6.56;93.18
33845;BME280;20145;43.118;25.694;2023-03-03T01:14:31;99750.69;;;6.56;92.73
33845;BME280;20145;43.118;25.694;2023-03-03T01:16:57;99745.53;;;6.52;92.66
33845;BME280;20145;43.118;25.694;2023-03-03T01:19:22;99716.38;;;6.42;93.03
33845;BME280;20145;43.118;25.694;2023-03-03T01:21:48;99732.66;;;6.47;92.76
33845;BME280;20145;43.118;25.694;2023-03-03T01:24:13;99734.38;;;6.46;92.93
33845;BME280;20145;43.118;25.694;2023-03-03T01:26:39;99735.25;;;6.48;93.00
33845;BME280;20145;43.118;25.694;2023-03-03T01:29:04;99717.22;;;6.38;93.65
33845;BME280;20145;43.118;25.694;2023-03-03T01:31:30;99735.28;;;6.53;93.12
33845;BME280;20145;43.118;25.694;2023-03-03T01:33:55;99733.59;;;6.55;92.80
33845;BME280;20145;43.118;25.694;2023-03-03T01:36:25;99724.22;;;6.57;92.38
33845;BME280;20145;43.118;25.694;2023-03-03T01:38:51;99724.13;;;6.51;92.32
33845;BME280;20145;43.118;25.694;2023-03-03T01:41:17;99724.16;;;6.53;92.41
33845;BME280;20145;43.118;25.694;2023-03-03T01:43:44;99729.28;;;6.53;91.97
33845;BME280;20145;43.118;25.694;2023-03-03T01:49:02;99722.44;;;6.48;93.39
33845;BME280;20145;43.118;25.694;2023-03-03T01:51:32;99713.88;;;6.48;93.24
33845;BME280;20145;43.118;25.694;2023-03-03T01:54:02;99716.47;;;6.50;93.54
33845;BME280;20145;43.118;25.694;2023-03-03T01:56:28;99713.06;;;6.54;93.43
33845;BME280;20145;43.118;25.694;2023-03-03T01:59:02;99715.66;;;6.55;93.37
33845;BME280;20145;43.118;25.694;2023-03-03T02:01:30;99713.09;;;6.55;93.26
33845;BME280;20145;43.118;25.694;2023-03-03T02:03:57;99705.47;;;6.63;92.50
33845;BME280;20145;43.118;25.694;2023-03-03T02:06:27;99710.56;;;6.61;93.54
33845;BME280;20145;43.118;25.694;2023-03-03T02:09:08;99705.38;;;6.52;92.62
33845;BME280;20145;43.118;25.694;2023-03-03T02:11:37;99707.91;;;6.51;92.87
33845;BME280;20145;43.118;25.694;2023-03-03T02:14:03;99707.09;;;6.56;93.32
33845;BME280;20145;43.118;25.694;2023-03-03T02:16:29;99708.00;;;6.61;93.23
33845;BME280;20145;43.118;25.694;2023-03-03T02:18:54;99711.50;;;6.68;91.99
33845;BME280;20145;43.118;25.694;2023-03-03T02:21:22;99701.28;;;6.71;92.35
33845;BME280;20145;43.118;25.694;2023-03-03T02:26:35;99696.16;;;6.76;91.89
33845;BME280;20145;43.118;25.694;2023-03-03T02:29:02;99703.91;;;6.83;91.65
33845;BME280;20145;43.118;25.694;2023-03-03T02:31:29;99702.22;;;6.87;92.03
33845;BME280;20145;43.118;25.694;2023-03-03T02:33:55;99698.81;;;6.86;91.32
33845;BME280;20145;43.118;25.694;2023-03-03T02:36:26;99691.91;;;6.78;91.13
33845;BME280;20145;43.118;25.694;2023-03-03T02:39:21;99708.97;;;6.76;92.04
33845;BME280;20145;43.118;25.694;2023-03-03T02:44:26;99699.63;;;6.84;92.54
33845;BME280;20145;43.118;25.694;2023-03-03T02:46:54;99693.66;;;6.82;92.15
33845;BME280;20145;43.118;25.694;2023-03-03T02:49:22;99702.25;;;6.90;91.64
33845;BME280;20145;43.118;25.694;2023-03-03T02:51:48;99703.97;;;6.92;90.77
33845;BME280;20145;43.118;25.694;2023-03-03T02:54:16;99705.72;;;6.98;90.91
33845;BME280;20145;43.118;25.694;2023-03-03T02:56:42;99704.88;;;6.98;90.75
33845;BME280;20145;43.118;25.694;2023-03-03T02:59:08;99696.38;;;7.02;92.12
33845;BME280;20145;43.118;25.694;2023-03-03T03:01:34;99711.78;;;7.06;91.67
33845;BME280;20145;43.118;25.694;2023-03-03T03:04:08;99709.22;;;7.05;90.90
33845;BME280;20145;43.118;25.694;2023-03-03T03:06:34;99710.94;;;7.09;90.73
33845;BME280;20145;43.118;25.694;2023-03-03T03:08:59;99710.09;;;7.10;90.79
33845;BME280;20145;43.118;25.694;2023-03-03T03:11:25;99714.38;;;7.11;91.00
33845;BME280;20145;43.118;25.694;2023-03-03T03:13:51;99707.56;;;7.14;91.22
33845;BME280;20145;43.118;25.694;2023-03-03T03:16:17;99703.31;;;7.15;90.80
33845;BME280;20145;43.118;25.694;2023-03-03T03:18:43;99701.56;;;7.14;91.22
33845;BME280;20145;43.118;25.694;2023-03-03T03:21:11;99700.72;;;7.13;90.44
33845;BME280;20145;43.118;25.694;2023-03-03T03:23:38;99679.25;;;7.01;90.84
33845;BME280;20145;43.118;25.694;2023-03-03T03:26:04;99695.53;;;7.06;90.31
33845;BME280;20145;43.118;25.694;2023-03-03T03:28:30;99691.25;;;7.09;90.29
33845;BME280;20145;43.118;25.694;2023-03-03T03:30:56;99706.72;;;7.12;90.57
33845;BME280;20145;43.118;25.694;2023-03-03T03:33:22;99707.53;;;7.10;90.74
33845;BME280;20145;43.118;25.694;2023-03-03T03:35:48;99707.53;;;7.07;90.95
33845;BME280;20145;43.118;25.694;2023-03-03T03:38:14;99704.06;;;7.03;90.32
33845;BME280;20145;43.118;25.694;2023-03-03T03:40:40;99705.75;;;7.00;90.46
33845;BME280;20145;43.118;25.694;2023-03-03T03:43:06;99704.03;;;7.00;90.31
33845;BME280;20145;43.118;25.694;2023-03-03T03:45:31;99696.38;;;7.02;90.88
33845;BME280;20145;43.118;25.694;2023-03-03T03:47:57;99691.03;;;6.76;90.37
33845;BME280;20145;43.118;25.694;2023-03-03T03:50:23;99695.22;;;6.67;90.13
33845;BME280;20145;43.118;25.694;2023-03-03T03:52:49;99693.56;;;6.69;90.02
33845;BME280;20145;43.118;25.694;2023-03-03T03:55:14;99696.16;;;6.74;89.41
33845;BME280;20145;43.118;25.694;2023-03-03T03:57:41;99691.88;;;6.73;89.53
33845;BME280;20145;43.118;25.694;2023-03-03T04:00:08;99682.50;;;6.78;90.07
33845;BME280;20145;43.118;25.694;2023-03-03T04:02:35;99687.72;;;6.89;90.00
33845;BME280;20145;43.118;25.694;2023-03-03T04:05:01;99681.75;;;6.91;89.55
33845;BME280;20145;43.118;25.694;2023-03-03T04:07:26;99688.59;;;6.91;89.03
33845;BME280;20145;43.118;25.694;2023-03-03T04:09:52;99675.75;;;6.89;88.17
33845;BME280;20145;43.118;25.694;2023-03-03T04:12:18;99678.38;;;6.96;88.11
33845;BME280;20145;43.118;25.694;2023-03-03T04:14:43;99684.31;;;6.91;88.87
33845;BME280;20145;43.118;25.694;2023-03-03T04:17:20;99685.16;;;6.89;87.93
33845;BME280;20145;43.118;25.694;2023-03-03T04:19:46;99673.97;;;6.76;88.82
33845;BME280;20145;43.118;25.694;2023-03-03T04:22:12;99685.88;;;6.73;89.33
33845;BME280;20145;43.118;25.694;2023-03-03T04:24:41;99681.56;;;6.67;89.04
33845;BME280;20145;43.118;25.694;2023-03-03T04:27:07;99686.69;;;6.62;88.98
33845;BME280;20145;43.118;25.694;2023-03-03T04:29:35;99680.66;;;6.57;89.88
33845;BME280;20145;43.118;25.694;2023-03-03T04:32:01;99677.97;;;6.48;90.36
33845;BME280;20145;43.118;25.694;2023-03-03T04:34:27;99681.34;;;6.42;90.49
33845;BME280;20145;43.118;25.694;2023-03-03T04:36:52;99668.50;;;6.35;90.33
33845;BME280;20145;43.118;25.694;2023-03-03T04:39:18;99681.31;;;6.36;91.09
33845;BME280;20145;43.118;25.694;2023-03-03T04:41:43;99677.81;;;6.31;90.42
33845;BME280;20145;43.118;25.694;2023-03-03T04:44:09;99676.94;;;6.28;90.61
33845;BME280;20145;43.118;25.694;2023-03-03T04:46:34;99670.81;;;6.10;91.13
33845;BME280;20145;43.118;25.694;2023-03-03T04:49:00;99681.88;;;6.09;90.66
33845;BME280;20145;43.118;25.694;2023-03-03T04:51:26;99688.75;;;6.12;91.02
33845;BME280;20145;43.118;25.694;2023-03-03T04:53:51;99677.56;;;6.03;91.09
33845;BME280;20145;43.118;25.694;2023-03-03T04:56:17;99688.66;;;6.04;91.26
33845;BME280;20145;43.118;25.694;2023-03-03T04:58:42;99671.34;;;5.83;90.89
33845;BME280;20145;43.118;25.694;2023-03-03T05:01:11;99693.59;;;5.89;91.29
33845;BME280;20145;43.118;25.694;2023-03-03T05:03:39;99697.75;;;5.80;91.42
33845;BME280;20145;43.118;25.694;2023-03-03T05:06:05;99695.19;;;5.80;91.32
33845;BME280;20145;43.118;25.694;2023-03-03T05:08:31;99702.09;;;5.86;92.16
33845;BME280;20145;43.118;25.694;2023-03-03T05:10:56;99701.25;;;5.86;91.67
33845;BME280;20145;43.118;25.694;2023-03-03T05:13:24;99702.88;;;5.80;92.44
33845;BME280;20145;43.118;25.694;2023-03-03T05:15:52;99706.25;;;5.76;92.71
33845;BME280;20145;43.118;25.694;2023-03-03T05:18:20;99696.88;;;5.77;91.94
33845;BME280;20145;43.118;25.694;2023-03-03T05:20:46;99703.00;;;5.93;91.72
33845;BME280;20145;43.118;25.694;2023-03-03T05:23:12;99697.19;;;6.03;92.03
33845;BME280;20145;43.118;25.694;2023-03-03T05:25:39;99712.50;;;5.97;91.95
33845;BME280;20145;43.118;25.694;2023-03-03T05:28:06;99708.91;;;5.87;91.57
33845;BME280;20145;43.118;25.694;2023-03-03T05:30:31;99704.81;;;5.97;91.37
33845;BME280;20145;43.118;25.694;2023-03-03T05:32:57;99706.66;;;6.12;91.13
33845;BME280;20145;43.118;25.694;2023-03-03T05:35:28;99706.75;;;6.19;90.80
33845;BME280;20145;43.118;25.694;2023-03-03T05:38:04;99712.00;;;6.32;90.36
33845;BME280;20145;43.118;25.694;2023-03-03T05:40:30;99704.41;;;6.41;90.17
33845;BME280;20145;43.118;25.694;2023-03-03T05:42:56;99696.72;;;6.42;89.46
33845;BME280;20145;43.118;25.694;2023-03-03T05:45:22;99706.19;;;6.50;89.15
33845;BME280;20145;43.118;25.694;2023-03-03T05:47:49;99702.75;;;6.46;88.66
33845;BME280;20145;43.118;25.694;2023-03-03T05:50:16;99708.75;;;6.46;89.46
33845;BME280;20145;43.118;25.694;2023-03-03T05:52:42;99708.81;;;6.54;89.92
33845;BME280;20145;43.118;25.694;2023-03-03T05:55:08;99709.75;;;6.62;88.94
33845;BME280;20145;43.118;25.694;2023-03-03T05:57:33;99714.88;;;6.62;88.82
33845;BME280;20145;43.118;25.694;2023-03-03T06:00:01;99712.22;;;6.56;88.41
33845;BME280;20145;43.118;25.694;2023-03-03T06:02:27;99710.50;;;6.52;89.86
33845;BME280;20145;43.118;25.694;2023-03-03T06:04:53;99716.31;;;6.36;89.59
33845;BME280;20145;43.118;25.694;2023-03-03T06:07:18;99715.47;;;6.35;89.87
33845;BME280;20145;43.118;25.694;2023-03-03T06:09:44;99708.63;;;6.36;90.53
33845;BME280;20145;43.118;25.694;2023-03-03T06:12:09;99713.66;;;6.25;89.76
33845;BME280;20145;43.118;25.694;2023-03-03T06:14:35;99713.66;;;6.25;90.76
33845;BME280;20145;43.118;25.694;2023-03-03T06:17:00;99718.81;;;6.27;90.95
33845;BME280;20145;43.118;25.694;2023-03-03T06:19:26;99720.59;;;6.35;90.10
33845;BME280;20145;43.118;25.694;2023-03-03T06:21:51;99713.81;;;6.42;90.61
33845;BME280;20145;43.118;25.694;2023-03-03T06:24:17;99711.31;;;6.48;90.37
33845;BME280;20145;43.118;25.694;2023-03-03T06:26:42;99717.31;;;6.48;89.61
33845;BME280;20145;43.118;25.694;2023-03-03T06:29:08;99719.09;;;6.57;89.74
33845;BME280;20145;43.118;25.694;2023-03-03T06:31:33;99720.84;;;6.63;89.29
33845;BME280;20145;43.118;25.694;2023-03-03T06:33:59;99722.56;;;6.64;89.75
33845;BME280;20145;43.118;25.694;2023-03-03T06:36:25;99707.06;;;6.50;89.98
33845;BME280;20145;43.118;25.694;2023-03-03T06:38:51;99724.25;;;6.60;90.07
33845;BME280;20145;43.118;25.694;2023-03-03T06:41:17;99716.47;;;6.50;89.37
33845;BME280;20145;43.118;25.694;2023-03-03T06:43:42;99724.22;;;6.57;90.54
33845;BME280;20145;43.118;25.694;2023-03-03T06:46:08;99730.22;;;6.61;90.16
33845;BME280;20145;43.118;25.694;2023-03-03T06:48:33;99733.50;;;6.43;91.06
33845;BME280;20145;43.118;25.694;2023-03-03T06:51:01;99730.94;;;6.47;90.95
33845;BME280;20145;43.118;25.694;2023-03-03T06:53:27;99723.38;;;6.61;91.13
33845;BME280;20145;43.118;25.694;2023-03-03T06:55:55;99730.31;;;6.68;90.95
33845;BME280;20145;43.118;25.694;2023-03-03T06:58:22;99723.50;;;6.74;90.67
33845;BME280;20145;43.118;25.694;2023-03-03T07:00:58;99724.41;;;6.80;90.10
33845;BME280;20145;43.118;25.694;2023-03-03T07:03:26;99727.72;;;6.70;90.56
33845;BME280;20145;43.118;25.694;2023-03-03T07:05:54;99726.03;;;6.70;90.45
33845;BME280;20145;43.118;25.694;2023-03-03T07:08:22;99718.41;;;6.78;90.04
33845;BME280;20145;43.118;25.694;2023-03-03T07:10:50;99715.13;;;6.95;91.13
33845;BME280;20145;43.118;25.694;2023-03-03T07:13:25;99709.19;;;7.03;90.68
33845;BME280;20145;43.118;25.694;2023-03-03T07:16:08;99713.38;;;6.92;89.87
33845;BME280;20145;43.118;25.694;2023-03-03T07:21:25;99709.06;;;6.85;91.65
33845;BME280;20145;43.118;25.694;2023-03-03T07:23:53;99707.38;;;6.88;91.26
33845;BME280;20145;43.118;25.694;2023-03-03T07:26:29;99709.13;;;6.91;91.71
33845;BME280;20145;43.118;25.694;2023-03-03T07:29:02;99703.22;;;7.04;91.64
33845;BME280;20145;43.118;25.694;2023-03-03T07:31:29;99705.00;;;7.18;91.15
33845;BME280;20145;43.118;25.694;2023-03-03T07:34:23;99697.28;;;7.13;90.26
33845;BME280;20145;43.118;25.694;2023-03-03T07:36:53;99698.19;;;7.18;90.79
33845;BME280;20145;43.118;25.694;2023-03-03T07:39:35;99699.91;;;7.22;89.80
33845;BME280;20145;43.118;25.694;2023-03-03T07:45:36;99692.22;;;7.22;90.29
33845;BME280;20145;43.118;25.694;2023-03-03T07:51:28;99679.47;;;7.37;89.17
33845;BME280;20145;43.118;25.694;2023-03-03T07:54:11;99678.59;;;7.32;88.21
33845;BME280;20145;43.118;25.694;2023-03-03T07:56:38;99680.34;;;7.38;87.95
33845;BME280;20145;43.118;25.694;2023-03-03T07:59:26;99675.19;;;7.43;87.98
33845;BME280;20145;43.118;25.694;2023-03-03T08:01:54;99674.44;;;7.59;86.95
33845;BME280;20145;43.118;25.694;2023-03-03T08:04:43;99676.19;;;7.66;87.17
33845;BME280;20145;43.118;25.694;2023-03-03T08:07:19;99672.81;;;7.79;86.51
33845;BME280;20145;43.118;25.694;2023-03-03T08:09:51;99674.56;;;7.88;85.81
33845;BME280;20145;43.118;25.694;2023-03-03T08:14:50;99674.44;;;7.60;86.98
33845;BME280;20145;43.118;25.694;2023-03-03T08:17:20;99665.88;;;7.57;87.28
33845;BME280;20145;43.118;25.694;2023-03-03T08:19:47;99647.88;;;7.55;86.98
33845;BME280;20145;43.118;25.694;2023-03-03T08:22:32;99668.44;;;7.57;86.97
33845;BME280;20145;43.118;25.694;2023-03-03T08:25:00;99671.91;;;7.68;86.92
33845;BME280;20145;43.118;25.694;2023-03-03T08:27:25;99655.66;;;7.68;87.72
33845;BME280;20145;43.118;25.694;2023-03-03T08:29:51;99662.47;;;7.64;86.07
33845;BME280;20145;43.118;25.694;2023-03-03T08:32:16;99659.06;;;7.68;87.40
33845;BME280;20145;43.118;25.694;2023-03-03T08:34:43;99660.78;;;7.75;87.50
33845;BME280;20145;43.118;25.694;2023-03-03T08:37:09;99654.00;;;7.88;86.58
33845;BME280;20145;43.118;25.694;2023-03-03T08:39:34;99654.00;;;7.88;86.48
33845;BME280;20145;43.118;25.694;2023-03-03T08:42:00;99653.16;;;7.85;85.61
33845;BME280;20145;43.118;25.694;2023-03-03T08:44:26;99647.13;;;7.86;86.10
33845;BME280;20145;43.118;25.694;2023-03-03T08:46:51;99660.88;;;8.00;85.56
33845;BME280;20145;43.118;25.694;2023-03-03T08:49:17;99648.88;;;7.93;85.13
33845;BME280;20145;43.118;25.694;2023-03-03T08:51:43;99654.03;;;7.96;85.70
33845;BME280;20145;43.118;25.694;2023-03-03T08:54:08;99650.59;;;8.03;85.68
33845;BME280;20145;43.118;25.694;2023-03-03T08:56:34;99657.47;;;8.05;85.11
33845;BME280;20145;43.118;25.694;2023-03-03T08:58:59;99649.75;;;7.99;84.39
33845;BME280;20145;43.118;25.694;2023-03-03T09:01:25;99656.59;;;7.93;86.07
33845;BME280;20145;43.118;25.694;2023-03-03T09:03:50;99649.75;;;8.12;85.47
33845;BME280;20145;43.118;25.694;2023-03-03T09:06:16;99654.91;;;8.25;84.82
33845;BME280;20145;43.118;25.694;2023-03-03T09:08:41;99650.66;;;8.21;83.62
33845;BME280;20145;43.118;25.694;2023-03-03T09:11:13;99651.47;;;8.14;84.85
33845;BME280;20145;43.118;25.694;2023-03-03T09:13:39;99648.09;;;8.26;84.58
33845;BME280;20145;43.118;25.694;2023-03-03T09:16:14;99650.66;;;8.34;83.83
33845;BME280;20145;43.118;25.694;2023-03-03T09:18:41;99651.50;;;8.23;83.62
33845;BME280;20145;43.118;25.694;2023-03-03T09:21:23;99643.78;;;8.22;84.28
33845;BME280;20145;43.118;25.694;2023-03-03T09:23:56;99642.09;;;8.35;84.69
33845;BME280;20145;43.118;25.694;2023-03-03T09:26:26;99635.22;;;8.34;84.16
33845;BME280;20145;43.118;25.694;2023-03-03T09:28:54;99634.41;;;8.61;83.22
33845;BME280;20145;43.118;25.694;2023-03-03T09:31:37;99636.97;;;8.70;81.92
33845;BME280;20145;43.118;25.694;2023-03-03T09:34:18;99635.25;;;8.77;82.85
33845;BME280;20145;43.118;25.694;2023-03-03T09:36:44;99626.66;;;8.90;82.45
33845;BME280;20145;43.118;25.694;2023-03-03T09:41:53;99638.69;;;8.85;81.12
33845;BME280;20145;43.118;25.694;2023-03-03T09:56:12;99613.81;;;8.85;82.36
33845;BME280;20145;43.118;25.694;2023-03-03T09:58:57;99618.06;;;9.02;81.80
33845;BME280;20145;43.118;25.694;2023-03-03T10:14:55;99617.19;;;9.07;80.29
33845;BME280;20145;43.118;25.694;2023-03-03T10:17:48;99610.31;;;9.11;79.56
33845;BME280;20145;43.118;25.694;2023-03-03T10:37:52;99582.16;;;10.37;74.94
33845;BME280;20145;43.118;25.694;2023-03-03T10:40:40;99575.19;;;10.48;75.04
33845;BME280;20145;43.118;25.694;2023-03-03T10:43:29;99567.94;;;10.83;72.86
33845;BME280;20145;43.118;25.694;2023-03-03T10:48:53;99562.91;;;10.74;73.45
33845;BME280;20145;43.118;25.694;2023-03-03T10:57:27;99548.81;;;11.02;72.83
33845;BME280;20145;43.118;25.694;2023-03-03T11:03:32;99552.50;;;10.81;72.87
33845;BME280;20145;43.118;25.694;2023-03-03T11:06:01;99538.34;;;11.14;71.79
33845;BME280;20145;43.118;25.694;2023-03-03T11:08:37;99539.88;;;11.31;71.17
33845;BME280;20145;43.118;25.694;2023-03-03T11:27:08;99519.34;;;10.43;75.66
33845;BME280;20145;43.118;25.694;2023-03-03T11:32:52;99515.34;;;10.07;75.07
33845;BME280;20145;43.118;25.694;2023-03-03T11:44:32;99510.25;;;10.00;76.72
33845;BME280;20145;43.118;25.694;2023-03-03T11:49:55;99502.91;;;10.52;74.47
33845;BME280;20145;43.118;25.694;2023-03-03T11:55:38;99503.63;;;10.66;74.07
33845;BME280;20145;43.118;25.694;2023-03-03T12:03:32;99498.78;;;10.37;74.32
33845;BME280;20145;43.118;25.694;2023-03-03T12:14:09;99497.34;;;10.00;75.90
33845;BME280;20145;43.118;25.694;2023-03-03T12:30:19;99513.09;;;9.60;78.77
33845;BME280;20145;43.118;25.694;2023-03-03T12:33:16;99513.22;;;9.39;78.35
33845;BME280;20145;43.118;25.694;2023-03-03T12:38:32;99512.47;;;9.19;79.34
33845;BME280;20145;43.118;25.694;2023-03-03T12:43:46;99518.47;;;9.19;80.21
33845;BME280;20145;43.118;25.694;2023-03-03T12:47:04;99515.13;;;8.99;80.70
33845;BME280;20145;43.118;25.694;2023-03-03T12:49:54;99516.78;;;9.15;81.15
33845;BME280;20145;43.118;25.694;2023-03-03T13:02:44;99516.94;;;8.61;83.53
33845;BME280;20145;43.118;25.694;2023-03-03T13:08:41;99513.53;;;8.64;84.14
33845;BME280;20145;43.118;25.694;2023-03-03T13:11:35;99519.56;;;8.57;83.82
33845;BME280;20145;43.118;25.694;2023-03-03T13:14:27;99517.88;;;8.43;84.87
33845;BME280;20145;43.118;25.694;2023-03-03T13:22:41;99511.84;;;8.38;85.04
33845;BME280;20145;43.118;25.694;2023-03-03T13:25:47;99512.69;;;8.37;84.26
33845;BME280;20145;43.118;25.694;2023-03-03T13:28:33;99515.28;;;8.20;85.19
33845;BME280;20145;43.118;25.694;2023-03-03T13:31:08;99520.41;;;8.03;85.62
33845;BME280;20145;43.118;25.694;2023-03-03T13:33:37;99521.28;;;8.19;85.88
33845;BME280;20145;43.118;25.694;2023-03-03T13:36:08;99506.72;;;8.32;85.74
33845;BME280;20145;43.118;25.694;2023-03-03T13:38:45;99511.88;;;8.40;84.46
33845;BME280;20145;43.118;25.694;2023-03-03T13:46:54;99501.56;;;8.44;86.25
33845;BME280;20145;43.118;25.694;2023-03-03T13:52:08;99505.00;;;8.42;87.07
33845;BME280;20145;43.118;25.694;2023-03-03T14:00:57;99499.88;;;8.16;89.07
33845;BME280;20145;43.118;25.694;2023-03-03T14:06:20;99503.31;;;7.82;90.68
33845;BME280;20145;43.118;25.694;2023-03-03T14:11:27;99511.00;;;7.76;91.58
33845;BME280;20145;43.118;25.694;2023-03-03T14:17:04;99510.13;;;8.00;91.09
33845;BME280;20145;43.118;25.694;2023-03-03T14:19:36;99505.88;;;8.04;91.24
33845;BME280;20145;43.118;25.694;2023-03-03T14:28:08;99509.28;;;7.92;91.79
33845;BME280;20145;43.118;25.694;2023-03-03T14:30:42;99507.56;;;7.94;92.61
33845;BME280;20145;43.118;25.694;2023-03-03T14:35:41;99504.16;;;8.01;92.33
33845;BME280;20145;43.118;25.694;2023-03-03T14:40:39;99505.03;;;7.93;93.14
33845;BME280;20145;43.118;25.694;2023-03-03T14:43:32;99504.16;;;7.85;93.08
33845;BME280;20145;43.118;25.694;2023-03-03T14:48:55;99493.03;;;7.73;93.37
33845;BME280;20145;43.118;25.694;2023-03-03T14:51:25;99489.59;;;7.64;94.61
33845;BME280;20145;43.118;25.694;2023-03-03T14:53:52;99498.13;;;7.46;96.04
33845;BME280;20145;43.118;25.694;2023-03-03T14:56:27;99500.72;;;7.59;95.94
33845;BME280;20145;43.118;25.694;2023-03-03T14:59:16;99499.03;;;7.74;96.44
33845;BME280;20145;43.118;25.694;2023-03-03T15:01:43;99501.56;;;7.72;95.36
33845;BME280;20145;43.118;25.694;2023-03-03T15:06:43;99507.56;;;7.60;94.69
33845;BME280;20145;43.118;25.694;2023-03-03T15:09:24;99504.13;;;7.66;94.53
33845;BME280;20145;43.118;25.694;2023-03-03T15:11:53;99512.66;;;7.56;95.02
33845;BME280;20145;43.118;25.694;2023-03-03T15:14:26;99507.53;;;7.50;94.76
33845;BME280;20145;43.118;25.694;2023-03-03T15:16:57;99500.69;;;7.50;95.64
33845;BME280;20145;43.118;25.694;2023-03-03T15:19:32;99510.94;;;7.35;96.65
33845;BME280;20145;43.118;25.694;2023-03-03T15:22:17;99512.63;;;7.39;96.53
33845;BME280;20145;43.118;25.694;2023-03-03T15:25:23;99509.25;;;7.55;96.50
33845;BME280;20145;43.118;25.694;2023-03-03T15:30:25;99516.94;;;7.43;95.17
33845;BME280;20145;43.118;25.694;2023-03-03T15:33:02;99510.88;;;7.26;96.78
33845;BME280;20145;43.118;25.694;2023-03-03T15:35:43;99518.63;;;7.32;96.52
33845;BME280;20145;43.118;25.694;2023-03-03T15:38:40;99506.63;;;7.37;96.84
33845;BME280;20145;43.118;25.694;2023-03-03T15:49:45;99523.72;;;7.18;96.36
33845;BME280;20145;43.118;25.694;2023-03-03T16:03:11;99533.13;;;7.25;97.13
33845;BME280;20145;43.118;25.694;2023-03-03T16:05:45;99528.00;;;7.22;95.88
33845;BME280;20145;43.118;25.694;2023-03-03T16:08:22;99525.41;;;7.10;96.49
33845;BME280;20145;43.118;25.694;2023-03-03T16:11:11;99529.63;;;7.06;95.89
33845;BME280;20145;43.118;25.694;2023-03-03T16:13:48;99535.66;;;7.13;95.69
33845;BME280;20145;43.118;25.694;2023-03-03T16:16:50;99538.13;;;6.91;96.54
33845;BME280;20145;43.118;25.694;2023-03-03T16:19:38;99543.22;;;6.85;97.25
33845;BME280;20145;43.118;25.694;2023-03-03T16:22:26;99544.03;;;6.74;97.92
33845;BME280;20145;43.118;25.694;2023-03-03T16:25:08;99555.22;;;6.92;97.36
33845;BME280;20145;43.118;25.694;2023-03-03T16:27:54;99544.94;;;6.83;98.83
33845;BME280;20145;43.118;25.694;2023-03-03T16:36:09;99545.81;;;6.88;98.42
33845;BME280;20145;43.118;25.694;2023-03-03T16:41:47;99554.44;;;7.04;98.77
33845;BME280;20145;43.118;25.694;2023-03-03T16:55:20;99564.84;;;7.38;97.02
33845;BME280;20145;43.118;25.694;2023-03-03T16:58:07;99563.97;;;7.33;97.09
33845;BME280;20145;43.118;25.694;2023-03-03T17:01:16;99570.84;;;7.45;96.79
33845;BME280;20145;43.118;25.694;2023-03-03T17:03:58;99568.31;;;7.58;98.05
33845;BME280;20145;43.118;25.694;2023-03-03T17:06:48;99570.88;;;7.57;97.61
33845;BME280;20145;43.118;25.694;2023-03-03T17:09:30;99575.13;;;7.56;96.51
33845;BME280;20145;43.118;25.694;2023-03-03T17:12:21;99577.72;;;7.55;96.67
33845;BME280;20145;43.118;25.694;2023-03-03T17:18:18;99581.09;;;7.42;95.84
33845;BME280;20145;43.118;25.694;2023-03-03T17:20:53;99580.22;;;7.43;96.16
33845;BME280;20145;43.118;25.694;2023-03-03T17:23:30;99589.72;;;7.54;94.55
33845;BME280;20145;43.118;25.694;2023-03-03T17:45:21;99587.94;;;7.43;96.37
33845;BME280;20145;43.118;25.694;2023-03-03T17:50:38;99581.13;;;7.55;95.69
33845;BME280;20145;43.118;25.694;2023-03-03T17:58:49;99589.72;;;7.70;95.26
33845;BME280;20145;43.118;25.694;2023-03-03T18:07:39;99595.75;;;7.76;97.30
33845;BME280;20145;43.118;25.694;2023-03-03T18:10:42;99593.19;;;7.78;97.83
33845;BME280;20145;43.118;25.694;2023-03-03T18:21:47;99618.88;;;7.84;97.30